createdAt,value
2019-02-27T00:01:16.733Z,3.22
2019-02-27T00:03:42.789Z,3.17
2019-02-27T00:06:10.077Z,3.02
2019-02-27T00:08:37.381Z,3.27
2019-02-27T00:11:04.641Z,3.25
2019-02-27T00:13:32.487Z,3.13
2019-02-27T00:15:59.765Z,3.01
2019-02-27T00:18:27.002Z,2.97
2019-02-27T00:20:54.311Z,3.01
2019-02-27T00:23:23.906Z,2.97
2019-02-27T00:25:50.742Z,2.94
2019-02-27T00:28:18.041Z,3.16
2019-02-27T00:30:45.311Z,3.04
2019-02-27T00:33:12.640Z,3.10
2019-02-27T00:35:39.961Z,3.03
2019-02-27T00:38:07.220Z,3.07
2019-02-27T00:40:38.431Z,3.16
2019-02-27T00:43:03.760Z,2.99
2019-02-27T00:45:31.029Z,2.97
2019-02-27T00:47:58.713Z,3.06
2019-02-27T00:50:25.958Z,3.40
2019-02-27T00:52:53.252Z,3.18
2019-02-27T00:55:20.541Z,3.03
2019-02-27T00:57:47.830Z,2.99
2019-02-27T01:00:15.656Z,2.95
2019-02-27T01:02:42.902Z,3.11
2019-02-27T01:05:10.399Z,2.96
2019-02-27T01:07:37.741Z,2.90
2019-02-27T01:10:07.220Z,2.99
2019-02-27T01:12:34.485Z,2.90
2019-02-27T01:15:01.736Z,3.02
2019-02-27T01:17:29.025Z,2.96
2019-02-27T01:19:56.325Z,2.98
2019-02-27T01:22:23.625Z,3.07
2019-02-27T01:24:50.903Z,2.99
2019-02-27T01:27:18.221Z,3.18
2019-02-27T01:29:45.493Z,3.32
2019-02-27T01:32:12.776Z,3.37
2019-02-27T01:34:44.238Z,3.22
2019-02-27T01:37:09.313Z,3.15
2019-02-27T01:39:36.553Z,3.00
2019-02-27T01:42:03.862Z,3.03
2019-02-27T01:44:31.256Z,2.94
2019-02-27T01:47:01.820Z,2.88
2019-02-27T01:49:27.742Z,2.85
2019-02-27T01:51:55.046Z,2.78
2019-02-27T01:54:22.503Z,2.89
2019-02-27T01:56:49.892Z,2.91
2019-02-27T01:59:17.812Z,2.99
2019-02-27T02:01:45.304Z,2.97
2019-02-27T02:04:12.755Z,2.93
2019-02-27T02:06:40.189Z,2.90
2019-02-27T02:09:09.917Z,3.17
2019-02-27T02:11:37.375Z,3.17
2019-02-27T02:14:24.101Z,3.16
2019-02-27T02:17:31.578Z,2.98
2019-02-27T02:20:34.485Z,2.92
2019-02-27T02:23:44.981Z,2.98
2019-02-27T02:26:39.254Z,2.89
2019-02-27T02:29:28.472Z,2.79
2019-02-27T02:32:52.060Z,3.13
2019-02-27T02:35:39.533Z,3.06
2019-02-27T02:39:02.373Z,3.04
2019-02-27T02:41:58.419Z,2.91
2019-02-27T02:45:06.074Z,2.95
2019-02-27T02:48:14.968Z,2.82
2019-02-27T02:51:00.211Z,2.76
2019-02-27T02:53:53.052Z,2.72
2019-02-27T02:56:45.536Z,2.68
2019-02-27T02:59:50.721Z,2.69
2019-02-27T03:02:57.575Z,2.74
2019-02-27T03:05:59.758Z,2.83
2019-02-27T03:08:56.334Z,2.82
2019-02-27T03:12:01.965Z,2.91
2019-02-27T03:15:06.094Z,2.76
2019-02-27T03:18:04.675Z,3.01
2019-02-27T03:21:06.281Z,3.23
2019-02-27T03:24:28.262Z,2.83
2019-02-27T03:27:47.481Z,2.78
2019-02-27T03:30:52.640Z,2.69
2019-02-27T04:11:41.375Z,2.74
2019-02-27T04:14:31.860Z,2.84
2019-02-27T04:17:06.912Z,2.94
2019-02-27T04:19:39.244Z,3.19
2019-02-27T04:25:38.977Z,2.92
2019-02-27T04:28:11.681Z,2.79
2019-02-27T04:30:43.864Z,2.87
2019-02-27T04:37:26.457Z,3.20
2019-02-27T04:40:01.258Z,2.90
2019-02-27T04:45:13.152Z,2.88
2019-02-27T04:48:24.096Z,2.97
2019-02-27T04:50:55.233Z,2.95
2019-02-27T04:53:46.500Z,2.89
2019-02-27T04:56:17.920Z,2.58
2019-02-27T04:59:02.613Z,2.70
2019-02-27T05:01:36.472Z,2.88
2019-02-27T05:04:19.474Z,2.85
2019-02-27T05:06:50.732Z,2.72
2019-02-27T05:09:41.511Z,2.72
2019-02-27T05:12:12.971Z,2.67
2019-02-27T05:15:14.714Z,2.64
2019-02-27T05:17:47.233Z,2.39
2019-02-27T05:20:18.031Z,2.46
2019-02-27T05:22:50.171Z,2.43
2019-02-27T05:25:46.154Z,2.53
2019-02-27T05:28:17.296Z,2.59
2019-02-27T05:31:12.312Z,2.90
2019-02-27T05:33:44.493Z,3.04
2019-02-27T05:36:32.368Z,2.91
2019-02-27T05:39:05.077Z,2.91
2019-02-27T05:41:47.076Z,2.78
2019-02-27T05:44:21.216Z,2.54
2019-02-27T05:47:18.733Z,2.67
2019-02-27T05:49:49.837Z,2.54
2019-02-27T05:52:35.733Z,2.38
2019-02-27T05:55:07.117Z,2.37
2019-02-27T05:58:00.213Z,2.34
2019-02-27T06:00:31.780Z,2.42
2019-02-27T06:03:12.578Z,2.28
2019-02-27T06:05:49.395Z,2.33
2019-02-27T06:08:16.175Z,2.31
2019-02-27T06:10:47.351Z,2.22
2019-02-27T06:13:44.965Z,2.30
2019-02-27T06:16:15.277Z,2.21
2019-02-27T06:18:46.294Z,2.33
2019-02-27T06:21:18.117Z,2.23
2019-02-27T06:24:12.499Z,2.09
2019-02-27T06:26:44.409Z,2.13
2019-02-27T06:29:50.529Z,2.17
2019-02-27T06:35:12.510Z,1.97
2019-02-27T06:37:40.041Z,2.04
2019-02-27T06:40:08.755Z,2.10
2019-02-27T06:42:36.394Z,2.14
2019-02-27T06:45:04.559Z,2.29
2019-02-27T06:47:33.032Z,2.03
2019-02-27T06:50:01.468Z,2.02
2019-02-27T06:52:28.912Z,2.10
2019-02-27T06:54:56.415Z,2.30
2019-02-27T06:57:23.910Z,2.11
2019-02-27T06:59:51.358Z,2.00
2019-02-27T07:02:19.110Z,2.08
2019-02-27T07:04:48.202Z,2.16
2019-02-27T07:07:15.707Z,2.02
2019-02-27T07:09:45.819Z,2.10
2019-02-27T07:12:12.595Z,2.15
2019-02-27T07:14:40.078Z,2.36
2019-02-27T07:17:07.513Z,2.22
2019-02-27T07:19:35.076Z,2.40
2019-02-27T07:22:03.069Z,2.45
2019-02-27T07:24:33.050Z,2.27
2019-02-27T07:26:59.878Z,2.18
2019-02-27T07:29:28.054Z,2.24
2019-02-27T07:31:57.226Z,2.38
2019-02-27T07:34:25.504Z,2.51
2019-02-27T07:36:52.995Z,2.49
2019-02-27T07:39:20.471Z,2.57
2019-02-27T07:41:47.964Z,2.37
2019-02-27T07:44:15.446Z,2.35
2019-02-27T07:46:42.934Z,2.30
2019-02-27T07:49:10.410Z,2.26
2019-02-27T07:51:37.847Z,2.29
2019-02-27T07:54:05.315Z,2.30
2019-02-27T07:56:32.789Z,2.30
2019-02-27T07:59:00.225Z,2.39
2019-02-27T08:01:27.668Z,2.27
2019-02-27T08:03:55.140Z,2.18
2019-02-27T08:06:23.621Z,2.41
2019-02-27T08:08:51.335Z,2.50
2019-02-27T08:11:18.848Z,2.34
2019-02-27T08:13:46.295Z,2.28
2019-02-27T08:16:13.781Z,2.51
2019-02-27T08:18:41.226Z,2.61
2019-02-27T08:21:08.759Z,2.58
2019-02-27T08:23:36.214Z,2.39
2019-02-27T08:26:05.136Z,2.58
2019-02-27T08:28:33.167Z,2.45
2019-02-27T08:31:00.699Z,2.69
2019-02-27T08:33:28.210Z,2.97
2019-02-27T08:35:55.711Z,2.49
2019-02-27T08:38:23.696Z,2.54
2019-02-27T08:40:51.436Z,2.73
2019-02-27T08:43:18.960Z,2.65
2019-02-27T08:45:46.403Z,2.98
2019-02-27T08:48:17.149Z,3.05
2019-02-27T08:50:43.211Z,3.11
2019-02-27T08:53:10.667Z,2.97
2019-02-27T08:55:39.262Z,3.05
2019-02-27T08:58:07.451Z,3.04
2019-02-27T09:00:35.016Z,3.31
2019-02-27T09:03:03.598Z,3.37
2019-02-27T09:05:31.590Z,3.69
2019-02-27T09:07:59.050Z,3.91
2019-02-27T09:10:30.380Z,4.11
2019-02-27T09:13:04.865Z,4.56
2019-02-27T09:15:25.255Z,4.65
2019-02-27T09:17:52.729Z,4.82
2019-02-27T09:20:20.879Z,4.95
2019-02-27T09:22:48.385Z,5.01
2019-02-27T09:25:16.252Z,5.23
2019-02-27T09:27:43.690Z,5.19
2019-02-27T09:30:12.651Z,4.72
2019-02-27T09:32:43.277Z,5.16
2019-02-27T09:35:12.501Z,5.36
2019-02-27T09:37:39.987Z,5.29
2019-02-27T09:40:09.559Z,5.53
2019-02-27T09:42:37.012Z,5.77
2019-02-27T09:45:04.613Z,6.27
2019-02-27T09:47:32.047Z,6.28
2019-02-27T09:49:59.488Z,6.24
2019-02-27T09:52:27.794Z,5.82
2019-02-27T09:54:57.329Z,6.19
2019-02-27T09:57:24.787Z,5.83
2019-02-27T09:59:53.672Z,5.71
2019-02-27T10:02:21.592Z,5.68
2019-02-27T10:04:49.057Z,6.19
2019-02-27T10:07:17.091Z,6.40
2019-02-27T10:09:44.780Z,6.15
2019-02-27T10:12:12.211Z,6.99
2019-02-27T10:14:39.703Z,7.31
2019-02-27T10:17:09.143Z,7.47
2019-02-27T10:19:36.498Z,7.60
2019-02-27T10:22:04.048Z,7.53
2019-02-27T10:24:32.307Z,7.69
2019-02-27T10:26:59.831Z,7.79
2019-02-27T10:29:27.333Z,7.81
2019-02-27T10:31:55.417Z,7.78
2019-02-27T10:34:23.072Z,7.86
2019-02-27T10:36:51.019Z,7.69
2019-02-27T10:39:18.748Z,7.77
2019-02-27T10:41:49.720Z,7.91
2019-02-27T10:44:15.704Z,7.98
2019-02-27T10:46:43.269Z,7.94
2019-02-27T10:49:10.796Z,8.26
2019-02-27T10:51:38.400Z,8.38
2019-02-27T10:54:06.136Z,8.39
2019-02-27T10:56:33.641Z,8.61
2019-02-27T10:59:01.378Z,8.38
2019-02-27T11:01:29.113Z,7.63
2019-02-27T11:03:56.642Z,7.70
2019-02-27T11:06:33.746Z,7.61
2019-02-27T11:08:55.916Z,7.72
2019-02-27T11:11:23.837Z,7.75
2019-02-27T11:13:51.771Z,7.69
2019-02-27T11:16:21.433Z,7.93
2019-02-27T11:18:49.570Z,7.95
2019-02-27T11:21:17.042Z,8.22
2019-02-27T11:23:44.472Z,8.42
2019-02-27T11:26:11.887Z,8.99
2019-02-27T11:28:39.325Z,9.29
2019-02-27T11:31:08.432Z,8.88
2019-02-27T11:33:37.290Z,9.04
2019-02-27T11:36:05.661Z,9.14
2019-02-27T11:38:34.003Z,8.99
2019-02-27T11:41:01.529Z,9.10
2019-02-27T11:43:28.976Z,9.51
2019-02-27T11:45:58.016Z,9.45
2019-02-27T11:48:25.829Z,9.60
2019-02-27T11:50:53.383Z,9.61
2019-02-27T11:53:20.846Z,9.59
2019-02-27T11:55:48.333Z,9.77
2019-02-27T11:58:15.879Z,9.65
2019-02-27T12:00:43.374Z,9.76
2019-02-27T12:03:11.317Z,9.93
2019-02-27T12:05:39.681Z,9.77
2019-02-27T12:08:07.200Z,9.87
2019-02-27T12:10:34.674Z,10.10
2019-02-27T12:13:02.108Z,10.12
2019-02-27T12:15:29.629Z,10.16
2019-02-27T12:17:59.725Z,10.19
2019-02-27T12:20:26.541Z,10.38
2019-02-27T12:22:54.010Z,10.29
2019-02-27T12:25:21.479Z,10.53
2019-02-27T12:27:52.590Z,10.28
2019-02-27T12:30:20.350Z,10.22
2019-02-27T12:32:47.858Z,10.36
2019-02-27T12:35:17.852Z,10.46
2019-02-27T12:37:45.362Z,10.27
2019-02-27T12:40:14.850Z,10.57
2019-02-27T12:42:43.153Z,10.56
2019-02-27T12:45:13.949Z,10.40
2019-02-27T12:47:41.424Z,10.64
2019-02-27T12:50:10.727Z,10.72
2019-02-27T12:52:38.211Z,10.60
2019-02-27T12:55:06.010Z,10.67
2019-02-27T12:57:33.511Z,11.13
2019-02-27T13:00:00.971Z,10.90
2019-02-27T13:02:35.438Z,11.41
2019-02-27T13:04:58.050Z,11.29
2019-02-27T13:07:25.508Z,11.38
2019-02-27T13:09:52.980Z,11.12
2019-02-27T13:12:20.429Z,11.04
2019-02-27T13:14:47.937Z,11.19
2019-02-27T13:17:15.571Z,11.21
2019-02-27T13:19:43.009Z,11.39
2019-02-27T13:22:10.588Z,11.81
2019-02-27T13:24:38.071Z,11.53
2019-02-27T13:27:09.015Z,11.94
2019-02-27T13:29:34.940Z,11.80
2019-02-27T13:32:02.403Z,12.01
2019-02-27T13:34:29.911Z,12.15
2019-02-27T13:36:57.385Z,12.23
2019-02-27T13:39:25.685Z,11.79
2019-02-27T13:41:53.752Z,11.31
2019-02-27T13:44:21.232Z,12.21
2019-02-27T13:46:48.731Z,12.08
2019-02-27T13:49:16.243Z,11.73
2019-02-27T13:51:43.752Z,11.99
2019-02-27T13:54:11.235Z,12.42
2019-02-27T13:56:38.732Z,12.43
2019-02-27T13:59:07.434Z,11.56
2019-02-27T14:01:35.865Z,11.40
2019-02-27T14:04:03.350Z,11.44
2019-02-27T14:06:30.829Z,11.29
2019-02-27T14:08:58.272Z,11.22
2019-02-27T14:11:25.865Z,11.46
2019-02-27T14:13:53.329Z,11.83
2019-02-27T14:16:20.785Z,11.62
2019-02-27T14:18:50.043Z,11.74
2019-02-27T14:21:18.188Z,11.70
2019-02-27T14:23:46.820Z,11.42
2019-02-27T14:26:14.650Z,11.12
2019-02-27T14:28:42.129Z,11.31
2019-02-27T14:31:10.058Z,11.56
2019-02-27T14:33:37.636Z,10.86
2019-02-27T14:36:08.200Z,11.32
2019-02-27T14:38:34.532Z,10.91
2019-02-27T14:41:02.015Z,11.13
2019-02-27T14:43:29.482Z,11.14
2019-02-27T14:45:56.951Z,11.72
2019-02-27T14:48:26.248Z,11.50
2019-02-27T14:50:53.710Z,11.30
2019-02-27T14:53:21.169Z,11.25
2019-02-27T14:55:48.654Z,11.27
2019-02-27T14:58:16.142Z,11.17
2019-02-27T15:00:43.824Z,11.02
2019-02-27T15:03:11.465Z,11.44
2019-02-27T15:05:42.881Z,11.09
2019-02-27T15:08:08.548Z,11.18
2019-02-27T15:10:40.243Z,11.67
2019-02-27T15:13:06.056Z,11.36
2019-02-27T15:15:34.165Z,11.19
2019-02-27T15:18:01.993Z,10.98
2019-02-27T15:20:30.118Z,11.33
2019-02-27T15:22:57.568Z,11.16
2019-02-27T15:25:25.051Z,11.44
2019-02-27T15:27:52.541Z,10.98
2019-02-27T15:30:21.916Z,10.96
2019-02-27T15:32:49.441Z,11.64
2019-02-27T15:35:21.040Z,11.98
2019-02-27T15:37:48.215Z,11.56
2019-02-27T15:40:17.710Z,11.19
2019-02-27T15:42:45.573Z,10.72
2019-02-27T15:45:15.344Z,10.43
2019-02-27T15:47:42.881Z,10.46
2019-02-27T15:50:12.228Z,9.99
2019-02-27T15:52:40.626Z,10.22
2019-02-27T15:55:08.642Z,10.04
2019-02-27T15:57:36.179Z,10.12
2019-02-27T16:00:06.395Z,10.01
2019-02-27T16:02:36.839Z,9.57
2019-02-27T16:05:04.580Z,9.63
2019-02-27T16:07:32.216Z,10.00
2019-02-27T16:09:59.716Z,9.61
2019-02-27T16:12:27.230Z,9.50
2019-02-27T16:14:54.962Z,9.26
2019-02-27T16:17:22.740Z,9.50
2019-02-27T16:19:50.520Z,9.44
2019-02-27T16:22:18.236Z,9.19
2019-02-27T16:24:53.446Z,9.13
2019-02-27T16:27:21.017Z,9.75
2019-02-27T16:29:50.977Z,9.68
2019-02-27T16:32:20.429Z,9.35
2019-02-27T16:34:47.974Z,8.57
2019-02-27T16:37:23.842Z,8.43
2019-02-27T16:39:51.578Z,8.76
2019-02-27T16:42:19.164Z,9.27
2019-02-27T16:44:46.946Z,8.28
2019-02-27T16:47:15.518Z,8.80
2019-02-27T16:49:44.143Z,9.31
2019-02-27T16:52:12.038Z,9.20
2019-02-27T16:54:39.806Z,8.67
2019-02-27T16:57:07.730Z,8.49
2019-02-27T16:59:35.499Z,8.53
2019-02-27T17:02:03.916Z,8.39
2019-02-27T17:04:34.075Z,8.49
2019-02-27T17:07:01.784Z,8.13
2019-02-27T17:09:29.749Z,7.64
2019-02-27T17:11:57.630Z,8.03
2019-02-27T17:14:25.674Z,7.48
2019-02-27T17:16:53.694Z,6.91
2019-02-27T17:19:21.768Z,6.84
2019-02-27T17:21:49.930Z,6.25
2019-02-27T17:24:21.837Z,5.94
2019-02-27T17:26:47.873Z,5.90
2019-02-27T17:29:15.674Z,5.88
2019-02-27T17:31:49.434Z,5.85
2019-02-27T17:34:16.030Z,5.61
2019-02-27T17:36:49.402Z,5.77
2019-02-27T17:39:17.374Z,5.37
2019-02-27T17:41:45.432Z,5.40
2019-02-27T17:44:13.418Z,5.47
2019-02-27T17:46:42.730Z,5.43
2019-02-27T17:49:10.473Z,5.68
2019-02-27T17:51:39.567Z,5.59
2019-02-27T17:54:07.718Z,5.93
2019-02-27T17:56:35.766Z,6.61
2019-02-27T17:59:05.218Z,5.70
2019-02-27T18:01:33.592Z,5.33
2019-02-27T18:04:01.677Z,5.01
2019-02-27T18:06:31.222Z,5.52
2019-02-27T18:08:59.812Z,5.46
2019-02-27T18:11:30.687Z,5.89
2019-02-27T18:14:10.085Z,6.17
2019-02-27T18:16:50.007Z,6.19
2019-02-27T18:19:18.065Z,6.36
2019-02-27T18:21:46.118Z,6.55
2019-02-27T18:24:15.773Z,6.98
2019-02-27T18:26:43.833Z,6.93
2019-02-27T18:29:11.875Z,7.06
2019-02-27T18:31:40.125Z,6.75
2019-02-27T18:34:08.201Z,6.29
2019-02-27T18:36:42.824Z,6.27
2019-02-27T18:39:06.790Z,5.96
2019-02-27T18:41:34.962Z,5.52
2019-02-27T18:44:04.780Z,5.12
2019-02-27T18:46:33.019Z,5.38
2019-02-27T18:49:02.514Z,5.02
2019-02-27T18:51:33.186Z,4.89
2019-02-27T18:54:02.280Z,4.75
2019-02-27T18:56:30.405Z,4.75
2019-02-27T18:58:58.476Z,4.63
2019-02-27T19:01:26.785Z,4.39
2019-02-27T19:04:00.349Z,4.38
2019-02-27T19:06:24.846Z,4.51
2019-02-27T19:08:53.272Z,4.55
2019-02-27T19:11:22.407Z,4.48
2019-02-27T19:13:50.598Z,4.53
2019-02-27T19:16:20.723Z,4.28
2019-02-27T19:18:48.745Z,4.41
2019-02-27T19:21:16.811Z,4.34
2019-02-27T19:23:44.926Z,4.41
2019-02-27T19:26:13.217Z,4.42
2019-02-27T19:28:41.356Z,4.30
2019-02-27T19:31:09.558Z,4.28
2019-02-27T19:33:37.606Z,4.23
2019-02-27T19:36:08.144Z,4.33
2019-02-27T19:38:36.266Z,4.33
2019-02-27T19:41:04.794Z,4.28
2019-02-27T19:43:33.370Z,4.28
2019-02-27T19:46:01.385Z,4.10
2019-02-27T19:48:29.669Z,3.99
2019-02-27T19:50:59.570Z,3.88
2019-02-27T19:53:27.635Z,3.92
2019-02-27T19:56:00.703Z,3.94
2019-02-27T19:58:26.424Z,3.65
2019-02-27T20:00:54.976Z,3.82
2019-02-27T20:03:24.069Z,4.05
2019-02-27T20:05:53.281Z,3.99
2019-02-27T20:08:22.414Z,3.94
2019-02-27T20:10:50.779Z,3.84
2019-02-27T20:13:24.651Z,3.65
2019-02-27T20:15:54.796Z,3.82
2019-02-27T20:18:24.006Z,3.62
2019-02-27T20:20:52.343Z,3.75
2019-02-27T20:23:20.418Z,3.76
2019-02-27T20:25:48.652Z,3.66
2019-02-27T20:28:18.747Z,3.54
2019-02-27T20:30:47.078Z,3.77
2019-02-27T20:33:15.447Z,4.04
2019-02-27T20:35:43.563Z,3.98
2019-02-27T20:38:16.153Z,3.85
2019-02-27T20:40:43.035Z,3.72
2019-02-27T20:43:11.075Z,3.30
2019-02-27T20:45:40.071Z,3.46
2019-02-27T20:48:08.447Z,3.51
2019-02-27T20:50:39.015Z,3.45
2019-02-27T20:53:07.870Z,3.51
2019-02-27T20:55:35.914Z,3.43
2019-02-27T20:58:04.634Z,3.49
2019-02-27T21:00:35.907Z,3.60
2019-02-27T21:03:03.257Z,3.39
2019-02-27T21:05:32.430Z,3.28
2019-02-27T21:08:02.078Z,3.30
2019-02-27T21:10:30.507Z,3.34
2019-02-27T21:12:58.594Z,3.32
2019-02-27T21:15:29.337Z,3.09
2019-02-27T21:17:58.632Z,3.13
2019-02-27T21:20:26.964Z,3.15
2019-02-27T21:22:55.052Z,3.19
2019-02-27T21:25:23.074Z,3.14
2019-02-27T21:27:51.294Z,3.17
2019-02-27T21:30:20.016Z,3.02
2019-02-27T21:32:48.178Z,2.96
2019-02-27T21:35:17.910Z,2.96
2019-02-27T21:37:45.905Z,2.87
2019-02-27T21:40:14.568Z,2.89
2019-02-27T21:42:42.683Z,3.01
2019-02-27T21:45:13.308Z,3.01
2019-02-27T21:47:41.339Z,3.04
2019-02-27T21:50:10.767Z,2.99
2019-02-27T21:52:38.834Z,2.96
2019-02-27T21:55:12.673Z,2.86
2019-02-27T21:57:36.686Z,3.00
2019-02-27T22:00:05.534Z,2.79
2019-02-27T22:02:33.014Z,2.92
2019-02-27T22:05:00.666Z,2.80
2019-02-27T22:07:32.933Z,2.77
2019-02-27T22:09:57.571Z,2.84
2019-02-27T22:12:25.185Z,2.75
2019-02-27T22:14:52.670Z,2.69
2019-02-27T22:17:20.164Z,2.77
2019-02-27T22:19:50.419Z,2.57
2019-02-27T22:22:16.991Z,2.38
2019-02-27T22:24:44.610Z,2.57
2019-02-27T22:27:12.750Z,2.30
2019-02-27T22:29:40.951Z,2.69
2019-02-27T22:32:08.440Z,2.70
2019-02-27T22:34:36.010Z,2.48
2019-02-27T22:37:03.659Z,2.39
2019-02-27T22:39:32.637Z,2.34
2019-02-27T22:42:00.235Z,2.61
2019-02-27T22:44:29.240Z,2.57
2019-02-27T22:46:57.267Z,2.50
2019-02-27T22:49:24.720Z,2.39
2019-02-27T22:51:52.275Z,2.37
2019-02-27T22:54:19.818Z,2.35
2019-02-27T22:56:51.387Z,2.37
2019-02-27T22:59:16.987Z,2.39
2019-02-27T23:01:50.747Z,2.37
2019-02-27T23:04:16.942Z,2.28
2019-02-27T23:06:47.283Z,2.22
2019-02-27T23:09:14.430Z,2.12
2019-02-27T23:11:42.601Z,2.24
2019-02-27T23:14:10.310Z,2.15
2019-02-27T23:16:37.867Z,2.27
2019-02-27T23:19:05.324Z,2.34
2019-02-27T23:21:32.779Z,2.30
2019-02-27T23:24:00.350Z,2.14
2019-02-27T23:26:27.935Z,2.20
2019-02-27T23:28:55.430Z,2.25
2019-02-27T23:31:23.672Z,2.12
2019-02-27T23:33:51.284Z,2.23
2019-02-27T23:36:22.002Z,2.17
2019-02-27T23:38:48.250Z,2.29
2019-02-27T23:41:15.686Z,2.13
2019-02-27T23:43:43.309Z,2.25
2019-02-27T23:46:10.770Z,1.90
2019-02-27T23:48:38.350Z,1.87
2019-02-27T23:51:05.846Z,1.77
2019-02-27T23:53:33.331Z,1.96
2019-02-27T23:56:00.765Z,1.74
2019-02-27T23:58:29.503Z,1.84
